sensor_id;sensor_type;location;lat;lon;timestamp;pressure;altitude;pressure_sealevel;temperature;humidity
19890;BME280;10107;51.198;6.824;2023-04-21T00:00:49;-21510.38;;;7.25;100.00
19890;BME280;10107;51.198;6.824;2023-04-21T00:04:52;-21511.72;;;7.30;100.00
19890;BME280;10107;51.198;6.824;2023-04-21T00:08:55;-21510.50;;;7.25;100.00
19890;BME280;10107;51.198;6.824;2023-04-21T00:12:57;-21510.38;;;7.25;100.00
19890;BME280;10107;51.198;6.824;2023-04-21T00:16:59;-21510.09;;;7.24;100.00
19890;BME280;10107;51.198;6.824;2023-04-21T00:21:02;-21511.16;;;7.28;100.00
19890;BME280;10107;51.198;6.824;2023-04-21T00:25:05;-21511.31;;;7.28;100.00
19890;BME280;10107;51.198;6.824;2023-04-21T00:29:08;-21511.84;;;7.30;100.00
19890;BME280;10107;51.198;6.824;2023-04-21T00:33:10;-21512.09;;;7.31;100.00
19890;BME280;10107;51.198;6.824;2023-04-21T00:37:13;-21511.97;;;7.31;100.00
19890;BME280;10107;51.198;6.824;2023-04-21T00:41:14;-21511.31;;;7.28;100.00
19890;BME280;10107;51.198;6.824;2023-04-21T00:45:16;-21511.31;;;7.28;100.00
19890;BME280;10107;51.198;6.824;2023-04-21T00:49:18;-21510.78;;;7.26;100.00
19890;BME280;10107;51.198;6.824;2023-04-21T00:53:21;-21508.25;;;7.17;100.00
19890;BME280;10107;51.198;6.824;2023-04-21T00:57:25;-21507.56;;;7.14;100.00
19890;BME280;10107;51.198;6.824;2023-04-21T01:01:28;-21506.78;;;7.11;100.00
19890;BME280;10107;51.198;6.824;2023-04-21T01:05:32;-21506.50;;;7.10;100.00
19890;BME280;10107;51.198;6.824;2023-04-21T01:09:36;-21507.31;;;7.13;100.00
19890;BME280;10107;51.198;6.824;2023-04-21T01:13:39;-21506.50;;;7.10;100.00
19890;BME280;10107;51.198;6.824;2023-04-21T01:17:41;-21506.66;;;7.10;100.00
19890;BME280;10107;51.198;6.824;2023-04-21T01:21:48;-21508.38;;;7.17;100.00
19890;BME280;10107;51.198;6.824;2023-04-21T01:25:50;-21508.25;;;7.17;100.00
19890;BME280;10107;51.198;6.824;2023-04-21T01:29:53;-21508.50;;;7.18;100.00
19890;BME280;10107;51.198;6.824;2023-04-21T01:33:55;-21508.66;;;7.18;100.00
19890;BME280;10107;51.198;6.824;2023-04-21T01:37:58;-21508.38;;;7.17;100.00
19890;BME280;10107;51.198;6.824;2023-04-21T01:42:00;-21508.09;;;7.16;100.00
19890;BME280;10107;51.198;6.824;2023-04-21T01:46:02;-21508.38;;;7.17;100.00
19890;BME280;10107;51.198;6.824;2023-04-21T01:50:04;-21507.84;;;7.15;100.00
19890;BME280;10107;51.198;6.824;2023-04-21T01:54:08;-21508.78;;;7.19;100.00
19890;BME280;10107;51.198;6.824;2023-04-21T01:58:10;-21509.72;;;7.22;100.00
19890;BME280;10107;51.198;6.824;2023-04-21T02:02:12;-21510.25;;;7.24;100.00
19890;BME280;10107;51.198;6.824;2023-04-21T02:06:14;-21511.03;;;7.27;100.00
19890;BME280;10107;51.198;6.824;2023-04-21T02:10:18;-21511.72;;;7.30;100.00
19890;BME280;10107;51.198;6.824;2023-04-21T02:14:20;-21513.56;;;7.37;100.00
19890;BME280;10107;51.198;6.824;2023-04-21T02:18:21;-21514.50;;;7.41;100.00
19890;BME280;10107;51.198;6.824;2023-04-21T02:22:24;-21515.84;;;7.46;100.00
19890;BME280;10107;51.198;6.824;2023-04-21T02:26:27;-21516.63;;;7.49;100.00
19890;BME280;10107;51.198;6.824;2023-04-21T02:30:29;-21517.16;;;7.51;100.00
19890;BME280;10107;51.198;6.824;2023-04-21T02:34:31;-21516.38;;;7.48;100.00
19890;BME280;10107;51.198;6.824;2023-04-21T02:38:33;-21516.22;;;7.47;100.00
19890;BME280;10107;51.198;6.824;2023-04-21T02:42:36;-21514.22;;;7.40;100.00
19890;BME280;10107;51.198;6.824;2023-04-21T02:46:39;-21512.38;;;7.32;100.00
19890;BME280;10107;51.198;6.824;2023-04-21T02:50:41;-21510.25;;;7.24;100.00
19890;BME280;10107;51.198;6.824;2023-04-21T02:54:43;-21508.25;;;7.17;100.00
19890;BME280;10107;51.198;6.824;2023-04-21T02:58:46;-21507.31;;;7.13;100.00
19890;BME280;10107;51.198;6.824;2023-04-21T03:02:49;-21505.59;;;7.06;100.00
19890;BME280;10107;51.198;6.824;2023-04-21T03:06:52;-21504.13;;;7.01;100.00
19890;BME280;10107;51.198;6.824;2023-04-21T03:10:54;-21502.66;;;6.95;100.00
19890;BME280;10107;51.198;6.824;2023-04-21T03:14:57;-21501.59;;;6.91;100.00
19890;BME280;10107;51.198;6.824;2023-04-21T03:18:59;-21500.78;;;6.88;100.00
19890;BME280;10107;51.198;6.824;2023-04-21T03:23:02;-21501.06;;;6.89;100.00
19890;BME280;10107;51.198;6.824;2023-04-21T03:27:04;-21501.59;;;6.91;100.00
19890;BME280;10107;51.198;6.824;2023-04-21T03:31:08;-21501.72;;;6.91;100.00
19890;BME280;10107;51.198;6.824;2023-04-21T03:35:10;-21502.53;;;6.94;100.00
19890;BME280;10107;51.198;6.824;2023-04-21T03:39:12;-21502.13;;;6.93;100.00
19890;BME280;10107;51.198;6.824;2023-04-21T03:43:13;-21501.84;;;6.92;100.00
19890;BME280;10107;51.198;6.824;2023-04-21T03:47:17;-21501.44;;;6.90;100.00
19890;BME280;10107;51.198;6.824;2023-04-21T03:51:19;-21500.78;;;6.88;100.00
19890;BME280;10107;51.198;6.824;2023-04-21T03:55:20;-21499.06;;;6.81;100.00
19890;BME280;10107;51.198;6.824;2023-04-21T03:59:22;-21498.00;;;6.77;100.00
19890;BME280;10107;51.198;6.824;2023-04-21T04:03:25;-21496.13;;;6.70;100.00
19890;BME280;10107;51.198;6.824;2023-04-21T04:07:27;-21494.25;;;6.63;100.00
19890;BME280;10107;51.198;6.824;2023-04-21T04:11:29;-21492.78;;;6.57;100.00
19890;BME280;10107;51.198;6.824;2023-04-21T04:15:30;-21490.41;;;6.48;100.00
19890;BME280;10107;51.198;6.824;2023-04-21T04:19:33;-21487.47;;;6.37;100.00
19890;BME280;10107;51.198;6.824;2023-04-21T04:23:35;-21485.47;;;6.29;100.00
19890;BME280;10107;51.198;6.824;2023-04-21T04:27:37;-21483.84;;;6.23;100.00
19890;BME280;10107;51.198;6.824;2023-04-21T04:31:39;-21481.84;;;6.15;100.00
19890;BME280;10107;51.198;6.824;2023-04-21T04:35:42;-21481.19;;;6.12;100.00
19890;BME280;10107;51.198;6.824;2023-04-21T04:39:43;-21481.06;;;6.12;100.00
19890;BME280;10107;51.198;6.824;2023-04-21T04:43:45;-21481.72;;;6.14;100.00
19890;BME280;10107;51.198;6.824;2023-04-21T04:47:48;-21483.47;;;6.21;100.00
19890;BME280;10107;51.198;6.824;2023-04-21T04:51:51;-21485.72;;;6.30;100.00
19890;BME280;10107;51.198;6.824;2023-04-21T04:55:52;-21490.00;;;6.46;100.00
19890;BME280;10107;51.198;6.824;2023-04-21T04:59:54;-21496.25;;;6.70;100.00
19890;BME280;10107;51.198;6.824;2023-04-21T05:03:56;-21502.38;;;6.94;100.00
19890;BME280;10107;51.198;6.824;2023-04-21T05:07:59;-21507.72;;;7.14;100.00
19890;BME280;10107;51.198;6.824;2023-04-21T05:12:01;-21513.16;;;7.36;100.00
19890;BME280;10107;51.198;6.824;2023-04-21T05:16:03;-21519.81;;;7.61;100.00
19890;BME280;10107;51.198;6.824;2023-04-21T05:20:06;-21528.22;;;7.93;100.00
19890;BME280;10107;51.198;6.824;2023-04-21T05:24:09;-21535.91;;;8.23;100.00
19890;BME280;10107;51.198;6.824;2023-04-21T05:28:11;-21541.63;;;8.45;100.00
19890;BME280;10107;51.198;6.824;2023-04-21T05:32:14;-21544.56;;;8.57;100.00
19890;BME280;10107;51.198;6.824;2023-04-21T05:36:16;-21546.03;;;8.62;100.00
19890;BME280;10107;51.198;6.824;2023-04-21T05:40:20;-21548.28;;;8.71;100.00
19890;BME280;10107;51.198;6.824;2023-04-21T05:44:22;-21549.47;;;8.76;100.00
19890;BME280;10107;51.198;6.824;2023-04-21T05:48:24;-21548.81;;;8.73;100.00
19890;BME280;10107;51.198;6.824;2023-04-21T05:52:26;-21551.72;;;8.84;100.00
19890;BME280;10107;51.198;6.824;2023-04-21T05:56:29;-21554.53;;;8.95;100.00
19890;BME280;10107;51.198;6.824;2023-04-21T06:00:31;-21556.78;;;9.04;100.00
19890;BME280;10107;51.198;6.824;2023-04-21T06:04:32;-21558.63;;;9.11;100.00
19890;BME280;10107;51.198;6.824;2023-04-21T06:08:34;-21560.38;;;9.18;100.00
19890;BME280;10107;51.198;6.824;2023-04-21T06:12:37;-21563.03;;;9.28;100.00
19890;BME280;10107;51.198;6.824;2023-04-21T06:16:39;-21566.34;;;9.41;100.00
19890;BME280;10107;51.198;6.824;2023-04-21T06:20:40;-21569.00;;;9.51;100.00
19890;BME280;10107;51.198;6.824;2023-04-21T06:24:42;-21578.94;;;9.89;100.00
19890;BME280;10107;51.198;6.824;2023-04-21T06:28:45;-21591.53;;;10.38;100.00
19890;BME280;10107;51.198;6.824;2023-04-21T06:32:47;-21599.75;;;10.70;100.00
19890;BME280;10107;51.198;6.824;2023-04-21T06:36:48;-21606.22;;;10.95;100.00
19890;BME280;10107;51.198;6.824;2023-04-21T06:40:50;-21613.53;;;11.23;100.00
19890;BME280;10107;51.198;6.824;2023-04-21T06:44:53;-21616.28;;;11.34;100.00
19890;BME280;10107;51.198;6.824;2023-04-21T06:48:55;-21629.25;;;11.84;100.00
19890;BME280;10107;51.198;6.824;2023-04-21T06:52:57;-21633.75;;;12.02;100.00
19890;BME280;10107;51.198;6.824;2023-04-21T06:56:59;-21628.19;;;11.80;100.00
19890;BME280;10107;51.198;6.824;2023-04-21T07:01:02;-21628.47;;;11.81;100.00
19890;BME280;10107;51.198;6.824;2023-04-21T07:05:04;-21626.75;;;11.75;100.00
19890;BME280;10107;51.198;6.824;2023-04-21T07:09:06;-21630.97;;;11.91;100.00
19890;BME280;10107;51.198;6.824;2023-04-21T07:13:08;-21640.22;;;12.27;100.00
19890;BME280;10107;51.198;6.824;2023-04-21T07:17:11;-21639.28;;;12.23;100.00
19890;BME280;10107;51.198;6.824;2023-04-21T07:21:15;-21646.97;;;12.53;100.00
19890;BME280;10107;51.198;6.824;2023-04-21T07:25:17;-21651.44;;;12.71;100.00
19890;BME280;10107;51.198;6.824;2023-04-21T07:29:18;-21651.72;;;12.72;100.00
19890;BME280;10107;51.198;6.824;2023-04-21T07:33:22;-21652.63;;;12.75;100.00
19890;BME280;10107;51.198;6.824;2023-04-21T07:37:23;-21651.44;;;12.71;100.00
19890;BME280;10107;51.198;6.824;2023-04-21T07:41:26;-21658.44;;;12.98;100.00
19890;BME280;10107;51.198;6.824;2023-04-21T07:45:28;-21675.34;;;13.63;100.00
19890;BME280;10107;51.198;6.824;2023-04-21T07:49:32;-21687.72;;;14.12;96.82
19890;BME280;10107;51.198;6.824;2023-04-21T07:53:34;-21710.09;;;14.99;92.76
19890;BME280;10107;51.198;6.824;2023-04-21T07:57:35;-21716.53;;;15.24;90.29
19890;BME280;10107;51.198;6.824;2023-04-21T08:01:39;-21743.19;;;16.28;80.58
19890;BME280;10107;51.198;6.824;2023-04-21T08:05:42;-21796.91;;;18.38;72.38
19890;BME280;10107;51.198;6.824;2023-04-21T08:09:44;-21776.50;;;17.58;73.19
19890;BME280;10107;51.198;6.824;2023-04-21T08:13:46;-21750.03;;;16.55;76.70
19890;BME280;10107;51.198;6.824;2023-04-21T08:17:48;-21723.09;;;15.50;82.29
19890;BME280;10107;51.198;6.824;2023-04-21T08:21:51;-21727.16;;;15.65;82.76
19890;BME280;10107;51.198;6.824;2023-04-21T08:25:52;-21721.78;;;15.44;85.06
19890;BME280;10107;51.198;6.824;2023-04-21T08:29:55;-21723.22;;;15.50;84.21
19890;BME280;10107;51.198;6.824;2023-04-21T08:33:56;-21733.22;;;15.89;84.80
19890;BME280;10107;51.198;6.824;2023-04-21T08:38:01;-21728.88;;;15.72;84.63
19890;BME280;10107;51.198;6.824;2023-04-21T08:42:03;-21723.88;;;15.53;87.63
19890;BME280;10107;51.198;6.824;2023-04-21T08:46:07;-21711.13;;;15.03;89.02
19890;BME280;10107;51.198;6.824;2023-04-21T08:50:11;-21699.69;;;14.58;92.81
19890;BME280;10107;51.198;6.824;2023-04-21T08:54:15;-21689.56;;;14.19;94.99
19890;BME280;10107;51.198;6.824;2023-04-21T08:58:16;-21685.88;;;14.04;97.72
19890;BME280;10107;51.198;6.824;2023-04-21T09:02:20;-21681.66;;;13.88;98.19
19890;BME280;10107;51.198;6.824;2023-04-21T09:06:23;-21681.25;;;13.86;98.76
19890;BME280;10107;51.198;6.824;2023-04-21T09:10:27;-21683.50;;;13.95;98.05
19890;BME280;10107;51.198;6.824;2023-04-21T09:14:30;-21687.06;;;14.09;98.01
19890;BME280;10107;51.198;6.824;2023-04-21T09:18:33;-21715.09;;;15.18;94.30
19890;BME280;10107;51.198;6.824;2023-04-21T09:22:37;-21775.31;;;17.54;83.80
19890;BME280;10107;51.198;6.824;2023-04-21T09:26:41;-21792.19;;;18.20;76.14
19890;BME280;10107;51.198;6.824;2023-04-21T09:30:43;-21779.09;;;17.69;78.45
19890;BME280;10107;51.198;6.824;2023-04-21T09:34:45;-21767.97;;;17.25;79.18
19890;BME280;10107;51.198;6.824;2023-04-21T09:38:49;-21786.97;;;17.99;77.18
19890;BME280;10107;51.198;6.824;2023-04-21T09:42:52;-21868.13;;;21.19;64.42
19890;BME280;10107;51.198;6.824;2023-04-21T09:46:58;-21886.31;;;21.90;61.13
19890;BME280;10107;51.198;6.824;2023-04-21T09:51:02;-21864.47;;;21.04;63.32
19890;BME280;10107;51.198;6.824;2023-04-21T09:55:10;-21867.06;;;21.14;63.06
19890;BME280;10107;51.198;6.824;2023-04-21T09:59:18;-21902.69;;;22.55;58.87
19890;BME280;10107;51.198;6.824;2023-04-21T10:03:21;-21918.91;;;23.19;55.17
19890;BME280;10107;51.198;6.824;2023-04-21T10:07:26;-21958.63;;;24.77;52.18
19890;BME280;10107;51.198;6.824;2023-04-21T10:11:29;-21907.88;;;22.76;54.97
19890;BME280;10107;51.198;6.824;2023-04-21T10:15:36;-21860.19;;;20.87;59.71
19890;BME280;10107;51.198;6.824;2023-04-21T10:19:47;-21819.50;;;19.27;67.00
19890;BME280;10107;51.198;6.824;2023-04-21T10:23:50;-21825.50;;;19.51;66.59
19890;BME280;10107;51.198;6.824;2023-04-21T10:27:53;-21858.75;;;20.82;63.92
19890;BME280;10107;51.198;6.824;2023-04-21T10:31:56;-21872.81;;;21.37;59.95
19890;BME280;10107;51.198;6.824;2023-04-21T10:35:59;-21876.19;;;21.50;58.08
19890;BME280;10107;51.198;6.824;2023-04-21T10:40:01;-21857.84;;;20.78;61.72
19890;BME280;10107;51.198;6.824;2023-04-21T10:44:11;-21830.72;;;19.71;64.39
19890;BME280;10107;51.198;6.824;2023-04-21T10:48:14;-21844.16;;;20.24;63.12
19890;BME280;10107;51.198;6.824;2023-04-21T10:52:18;-21832.03;;;19.76;64.05
19890;BME280;10107;51.198;6.824;2023-04-21T10:56:20;-21843.91;;;20.23;62.17
19890;BME280;10107;51.198;6.824;2023-04-21T11:00:23;-21871.38;;;21.31;59.67
19890;BME280;10107;51.198;6.824;2023-04-21T11:04:26;-21840.38;;;20.09;63.83
19890;BME280;10107;51.198;6.824;2023-04-21T11:08:28;-21809.72;;;18.89;71.28
19890;BME280;10107;51.198;6.824;2023-04-21T11:12:31;-21805.91;;;18.74;69.67
19890;BME280;10107;51.198;6.824;2023-04-21T11:16:33;-21835.69;;;19.91;64.61
19890;BME280;10107;51.198;6.824;2023-04-21T11:20:40;-21816.25;;;19.14;68.67
19890;BME280;10107;51.198;6.824;2023-04-21T11:24:47;-21797.69;;;18.42;72.00
19890;BME280;10107;51.198;6.824;2023-04-21T11:28:49;-21800.81;;;18.54;67.56
19890;BME280;10107;51.198;6.824;2023-04-21T11:32:53;-21844.94;;;20.27;60.03
19890;BME280;10107;51.198;6.824;2023-04-21T11:36:56;-21909.94;;;22.84;52.08
19890;BME280;10107;51.198;6.824;2023-04-21T11:40:58;-21957.59;;;24.73;44.68
19890;BME280;10107;51.198;6.824;2023-04-21T11:45:00;-21978.66;;;25.56;40.69
19890;BME280;10107;51.198;6.824;2023-04-21T11:49:03;-21929.00;;;23.59;42.95
19890;BME280;10107;51.198;6.824;2023-04-21T11:53:06;-21884.63;;;21.84;47.78
19890;BME280;10107;51.198;6.824;2023-04-21T11:57:08;-21863.03;;;20.99;51.49
19890;BME280;10107;51.198;6.824;2023-04-21T12:01:10;-21838.16;;;20.01;55.02
19890;BME280;10107;51.198;6.824;2023-04-21T12:05:12;-21828.50;;;19.63;55.42
19890;BME280;10107;51.198;6.824;2023-04-21T12:09:20;-21848.19;;;20.40;53.60
19890;BME280;10107;51.198;6.824;2023-04-21T12:13:21;-21893.22;;;22.18;49.40
19890;BME280;10107;51.198;6.824;2023-04-21T12:17:23;-21906.06;;;22.68;46.24
19890;BME280;10107;51.198;6.824;2023-04-21T12:21:26;-21891.13;;;22.09;47.12
19890;BME280;10107;51.198;6.824;2023-04-21T12:25:29;-21885.53;;;21.87;48.36
19890;BME280;10107;51.198;6.824;2023-04-21T12:29:31;-21880.22;;;21.66;47.52
19890;BME280;10107;51.198;6.824;2023-04-21T12:33:34;-21883.59;;;21.80;47.51
19890;BME280;10107;51.198;6.824;2023-04-21T12:37:36;-21899.31;;;22.42;45.34
19890;BME280;10107;51.198;6.824;2023-04-21T12:41:39;-21914.63;;;23.02;43.56
19890;BME280;10107;51.198;6.824;2023-04-21T12:45:41;-21918.38;;;23.17;42.69
19890;BME280;10107;51.198;6.824;2023-04-21T12:49:42;-21923.31;;;23.37;41.92
19890;BME280;10107;51.198;6.824;2023-04-21T12:53:45;-21913.19;;;22.97;42.73
19890;BME280;10107;51.198;6.824;2023-04-21T12:57:48;-21937.94;;;23.95;41.92
19890;BME280;10107;51.198;6.824;2023-04-21T13:01:50;-21931.84;;;23.70;40.47
19890;BME280;10107;51.198;6.824;2023-04-21T13:05:52;-21942.97;;;24.15;40.97
19890;BME280;10107;51.198;6.824;2023-04-21T13:09:53;-21932.50;;;23.73;42.86
19890;BME280;10107;51.198;6.824;2023-04-21T13:13:57;-21916.94;;;23.11;42.92
19890;BME280;10107;51.198;6.824;2023-04-21T13:17:58;-21933.66;;;23.78;41.65
19890;BME280;10107;51.198;6.824;2023-04-21T13:22:00;-21923.56;;;23.38;41.99
19890;BME280;10107;51.198;6.824;2023-04-21T13:26:02;-21895.41;;;22.26;44.91
19890;BME280;10107;51.198;6.824;2023-04-21T13:30:07;-21878.41;;;21.59;46.27
19890;BME280;10107;51.198;6.824;2023-04-21T13:34:10;-21867.72;;;21.17;48.03
19890;BME280;10107;51.198;6.824;2023-04-21T13:38:11;-21852.50;;;20.57;48.16
19890;BME280;10107;51.198;6.824;2023-04-21T13:42:13;-21857.06;;;20.75;49.49
19890;BME280;10107;51.198;6.824;2023-04-21T13:46:20;-21871.50;;;21.32;46.37
19890;BME280;10107;51.198;6.824;2023-04-21T13:50:23;-21853.66;;;20.62;49.03
19890;BME280;10107;51.198;6.824;2023-04-21T13:54:25;-21848.97;;;20.43;48.88
19890;BME280;10107;51.198;6.824;2023-04-21T13:58:29;-21828.00;;;19.61;49.77
19890;BME280;10107;51.198;6.824;2023-04-21T14:02:34;-21813.25;;;19.03;52.25
19890;BME280;10107;51.198;6.824;2023-04-21T14:06:36;-21808.94;;;18.86;53.09
19890;BME280;10107;51.198;6.824;2023-04-21T14:10:38;-21811.41;;;18.95;53.80
19890;BME280;10107;51.198;6.824;2023-04-21T14:14:40;-21809.06;;;18.86;53.31
19890;BME280;10107;51.198;6.824;2023-04-21T14:18:43;-21809.19;;;18.87;53.09
19890;BME280;10107;51.198;6.824;2023-04-21T14:22:45;-21817.53;;;19.19;52.58
19890;BME280;10107;51.198;6.824;2023-04-21T14:26:47;-21818.06;;;19.22;52.29
19890;BME280;10107;51.198;6.824;2023-04-21T14:30:49;-21808.81;;;18.85;52.71
19890;BME280;10107;51.198;6.824;2023-04-21T14:34:52;-21807.09;;;18.78;53.73
19890;BME280;10107;51.198;6.824;2023-04-21T14:38:54;-21817.53;;;19.19;51.75
19890;BME280;10107;51.198;6.824;2023-04-21T14:42:55;-21816.09;;;19.14;52.79
19890;BME280;10107;51.198;6.824;2023-04-21T14:46:57;-21812.06;;;18.98;52.95
19890;BME280;10107;51.198;6.824;2023-04-21T14:51:00;-21813.09;;;19.02;52.02
19890;BME280;10107;51.198;6.824;2023-04-21T14:55:02;-21831.66;;;19.75;51.20
19890;BME280;10107;51.198;6.824;2023-04-21T14:59:04;-21835.81;;;19.91;47.37
19890;BME280;10107;51.198;6.824;2023-04-21T15:03:05;-21837.25;;;19.97;48.20
19890;BME280;10107;51.198;6.824;2023-04-21T15:07:08;-21828.13;;;19.61;48.77
19890;BME280;10107;51.198;6.824;2023-04-21T15:11:10;-21823.94;;;19.45;48.69
19890;BME280;10107;51.198;6.824;2023-04-21T15:15:12;-21819.91;;;19.29;49.54
19890;BME280;10107;51.198;6.824;2023-04-21T15:19:14;-21821.06;;;19.33;50.78
19890;BME280;10107;51.198;6.824;2023-04-21T15:23:17;-21819.13;;;19.26;49.53
19890;BME280;10107;51.198;6.824;2023-04-21T15:27:19;-21814.28;;;19.07;50.13
19890;BME280;10107;51.198;6.824;2023-04-21T15:31:21;-21813.25;;;19.03;51.28
19890;BME280;10107;51.198;6.824;2023-04-21T15:35:24;-21813.91;;;19.05;51.01
19890;BME280;10107;51.198;6.824;2023-04-21T15:39:27;-21815.72;;;19.12;51.89
19890;BME280;10107;51.198;6.824;2023-04-21T15:43:29;-21813.63;;;19.04;51.49
19890;BME280;10107;51.198;6.824;2023-04-21T15:47:30;-21808.00;;;18.82;52.36
19890;BME280;10107;51.198;6.824;2023-04-21T15:51:33;-21803.19;;;18.63;53.67
19890;BME280;10107;51.198;6.824;2023-04-21T15:55:36;-21801.88;;;18.58;53.88
19890;BME280;10107;51.198;6.824;2023-04-21T15:59:38;-21805.66;;;18.73;53.68
19890;BME280;10107;51.198;6.824;2023-04-21T16:03:40;-21806.44;;;18.76;51.30
19890;BME280;10107;51.198;6.824;2023-04-21T16:07:41;-21806.19;;;18.75;51.85
19890;BME280;10107;51.198;6.824;2023-04-21T16:11:44;-21799.66;;;18.49;53.12
19890;BME280;10107;51.198;6.824;2023-04-21T16:15:49;-21790.75;;;18.14;54.85
19890;BME280;10107;51.198;6.824;2023-04-21T16:19:53;-21784.59;;;17.90;55.21
19890;BME280;10107;51.198;6.824;2023-04-21T16:23:55;-21782.91;;;17.84;55.83
19890;BME280;10107;51.198;6.824;2023-04-21T16:27:58;-21784.88;;;17.91;55.84
19890;BME280;10107;51.198;6.824;2023-04-21T16:32:00;-21787.09;;;18.00;55.89
19890;BME280;10107;51.198;6.824;2023-04-21T16:36:01;-21788.94;;;18.07;55.47
19890;BME280;10107;51.198;6.824;2023-04-21T16:40:04;-21791.28;;;18.16;56.42
19890;BME280;10107;51.198;6.824;2023-04-21T16:44:08;-21791.94;;;18.19;56.18
19890;BME280;10107;51.198;6.824;2023-04-21T16:48:10;-21790.09;;;18.12;56.60
19890;BME280;10107;51.198;6.824;2023-04-21T16:52:12;-21785.53;;;17.94;56.43
19890;BME280;10107;51.198;6.824;2023-04-21T16:56:13;-21771.91;;;17.40;53.55
19890;BME280;10107;51.198;6.824;2023-04-21T17:00:17;-21764.19;;;17.10;54.11
19890;BME280;10107;51.198;6.824;2023-04-21T17:04:19;-21761.03;;;16.98;54.98
19890;BME280;10107;51.198;6.824;2023-04-21T17:08:21;-21756.31;;;16.79;55.53
19890;BME280;10107;51.198;6.824;2023-04-21T17:12:23;-21748.97;;;16.51;55.85
19890;BME280;10107;51.198;6.824;2023-04-21T17:16:26;-21742.94;;;16.27;58.60
19890;BME280;10107;51.198;6.824;2023-04-21T17:20:27;-21735.97;;;16.00;59.65
19890;BME280;10107;51.198;6.824;2023-04-21T17:24:30;-21730.72;;;15.79;60.34
19890;BME280;10107;51.198;6.824;2023-04-21T17:28:31;-21726.00;;;15.61;60.77
19890;BME280;10107;51.198;6.824;2023-04-21T17:32:34;-21723.09;;;15.50;61.16
19890;BME280;10107;51.198;6.824;2023-04-21T17:36:36;-21720.06;;;15.38;62.56
19890;BME280;10107;51.198;6.824;2023-04-21T17:40:39;-21716.53;;;15.24;63.80
19890;BME280;10107;51.198;6.824;2023-04-21T17:44:41;-21711.41;;;15.04;63.54
19890;BME280;10107;51.198;6.824;2023-04-21T17:48:44;-21706.81;;;14.86;65.56
19890;BME280;10107;51.198;6.824;2023-04-21T17:52:45;-21702.19;;;14.68;66.85
19890;BME280;10107;51.198;6.824;2023-04-21T17:56:47;-21697.59;;;14.50;67.24
19890;BME280;10107;51.198;6.824;2023-04-21T18:00:49;-21693.50;;;14.34;67.38
19890;BME280;10107;51.198;6.824;2023-04-21T18:04:52;-21690.59;;;14.23;68.95
19890;BME280;10107;51.198;6.824;2023-04-21T18:08:53;-21687.06;;;14.09;69.90
19890;BME280;10107;51.198;6.824;2023-04-21T18:12:55;-21683.75;;;13.96;69.99
19890;BME280;10107;51.198;6.824;2023-04-21T18:16:57;-21681.53;;;13.88;70.89
19890;BME280;10107;51.198;6.824;2023-04-21T18:21:00;-21678.50;;;13.76;72.00
19890;BME280;10107;51.198;6.824;2023-04-21T18:25:01;-21674.81;;;13.61;71.75
19890;BME280;10107;51.198;6.824;2023-04-21T18:29:03;-21670.84;;;13.46;72.85
19890;BME280;10107;51.198;6.824;2023-04-21T18:33:05;-21665.84;;;13.26;73.41
19890;BME280;10107;51.198;6.824;2023-04-21T18:37:08;-21661.22;;;13.08;76.54
19890;BME280;10107;51.198;6.824;2023-04-21T18:41:10;-21656.84;;;12.92;79.17
19890;BME280;10107;51.198;6.824;2023-04-21T18:45:12;-21653.56;;;12.79;79.42
19890;BME280;10107;51.198;6.824;2023-04-21T18:49:16;-21652.25;;;12.74;81.24
19890;BME280;10107;51.198;6.824;2023-04-21T18:53:19;-21651.59;;;12.71;82.19
19890;BME280;10107;51.198;6.824;2023-04-21T18:57:21;-21652.91;;;12.76;83.34
19890;BME280;10107;51.198;6.824;2023-04-21T19:01:22;-21654.22;;;12.81;84.63
19890;BME280;10107;51.198;6.824;2023-04-21T19:05:24;-21655.28;;;12.85;86.22
19890;BME280;10107;51.198;6.824;2023-04-21T19:09:27;-21656.59;;;12.91;86.59
19890;BME280;10107;51.198;6.824;2023-04-21T19:13:30;-21658.31;;;12.97;87.37
19890;BME280;10107;51.198;6.824;2023-04-21T19:17:32;-21660.94;;;13.07;83.12
19890;BME280;10107;51.198;6.824;2023-04-21T19:21:34;-21659.50;;;13.02;83.29
19890;BME280;10107;51.198;6.824;2023-04-21T19:25:37;-21655.16;;;12.85;89.38
19890;BME280;10107;51.198;6.824;2023-04-21T19:29:39;-21647.63;;;12.56;94.41
19890;BME280;10107;51.198;6.824;2023-04-21T19:33:40;-21639.97;;;12.26;99.38
19890;BME280;10107;51.198;6.824;2023-04-21T19:37:44;-21633.88;;;12.02;100.00
19890;BME280;10107;51.198;6.824;2023-04-21T19:41:47;-21626.88;;;11.75;100.00
19890;BME280;10107;51.198;6.824;2023-04-21T19:45:51;-21623.03;;;11.60;100.00
19890;BME280;10107;51.198;6.824;2023-04-21T19:49:55;-21619.59;;;11.47;100.00
19890;BME280;10107;51.198;6.824;2023-04-21T19:53:56;-21617.75;;;11.40;100.00
19890;BME280;10107;51.198;6.824;2023-04-21T19:57:59;-21615.50;;;11.31;100.00
19890;BME280;10107;51.198;6.824;2023-04-21T20:02:01;-21614.72;;;11.28;100.00
19890;BME280;10107;51.198;6.824;2023-04-21T20:06:04;-21613.66;;;11.24;100.00
19890;BME280;10107;51.198;6.824;2023-04-21T20:10:06;-21613.66;;;11.24;100.00
19890;BME280;10107;51.198;6.824;2023-04-21T20:14:10;-21611.53;;;11.16;100.00
19890;BME280;10107;51.198;6.824;2023-04-21T20:18:11;-21609.69;;;11.08;100.00
19890;BME280;10107;51.198;6.824;2023-04-21T20:22:14;-21608.88;;;11.05;100.00
19890;BME280;10107;51.198;6.824;2023-04-21T20:26:15;-21608.75;;;11.05;100.00
19890;BME280;10107;51.198;6.824;2023-04-21T20:30:19;-21608.88;;;11.05;100.00
19890;BME280;10107;51.198;6.824;2023-04-21T20:34:20;-21608.22;;;11.03;100.00
19890;BME280;10107;51.198;6.824;2023-04-21T20:38:22;-21606.09;;;10.95;100.00
19890;BME280;10107;51.198;6.824;2023-04-21T20:42:24;-21604.00;;;10.86;100.00
19890;BME280;10107;51.198;6.824;2023-04-21T20:46:29;-21601.34;;;10.76;100.00
19890;BME280;10107;51.198;6.824;2023-04-21T20:50:30;-21598.28;;;10.64;100.00
19890;BME280;10107;51.198;6.824;2023-04-21T20:54:32;-21595.13;;;10.52;100.00
19890;BME280;10107;51.198;6.824;2023-04-21T20:58:34;-21592.47;;;10.42;100.00
19890;BME280;10107;51.198;6.824;2023-04-21T21:02:37;-21590.06;;;10.33;100.00